Time;durP1;ratioP1;P1;durP2;ratioP2;P2;SDS_P1;SDS_P2;PMS_P1;PMS_P2;Temp;Humidity;BMP_temperature;BMP_pressure;BME280_temperature;BME280_humidity;BME280_pressure;Samples;Min_cycle;Max_cycle;Signal;HPM_P1;HPM_P2
2021/12/31 00:02:12;;;;;;;26.88;4.20;;;;;;;;;;5022306;28;20286;-72
2021/12/31 00:04:38;;;;;;;23.65;4.57;;;;;;;;;;5019862;28;20036;-72
2021/12/31 00:07:04;;;;;;;27.23;4.53;;;;;;;;;;5017347;28;20064;-72
2021/12/31 00:09:30;;;;;;;27.92;4.43;;;;;;;;;;5021802;28;20033;-72
2021/12/31 00:11:56;;;;;;;38.13;4.32;;;;;;;;;;5019820;28;20045;-72
2021/12/31 00:14:23;;;;;;;30.45;4.78;;;;;;;;;;5019813;28;20037;-72
2021/12/31 00:16:49;;;;;;;18.30;3.47;;;;;;;;;;5020518;28;20033;-72
2021/12/31 00:19:15;;;;;;;20.30;3.38;;;;;;;;;;5000821;28;20046;-72
2021/12/31 00:21:45;;;;;;;18.98;3.50;;;;;;;;;;5019100;28;20048;-72
2021/12/31 00:24:11;;;;;;;21.55;3.75;;;;;;;;;;5021110;28;20037;-72
2021/12/31 00:26:38;;;;;;;20.08;3.42;;;;;;;;;;5021252;28;20051;-72
2021/12/31 00:29:04;;;;;;;24.27;3.47;;;;;;;;;;5020922;28;20021;-72
2021/12/31 00:31:30;;;;;;;32.15;5.18;;;;;;;;;;5005670;28;20107;-72
2021/12/31 00:33:56;;;;;;;27.42;5.05;;;;;;;;;;5021219;28;20037;-72
2021/12/31 00:36:22;;;;;;;24.92;4.30;;;;;;;;;;4995212;28;20396;-72
2021/12/31 00:38:48;;;;;;;28.90;4.85;;;;;;;;;;5019623;28;20164;-72
2021/12/31 00:41:14;;;;;;;22.45;3.42;;;;;;;;;;5017421;28;20044;-72
2021/12/31 00:43:40;;;;;;;25.70;3.92;;;;;;;;;;5018191;28;20038;-72
2021/12/31 00:46:06;;;;;;;27.67;4.75;;;;;;;;;;5022247;28;20030;-72
2021/12/31 00:48:32;;;;;;;23.05;3.70;;;;;;;;;;5002100;28;20033;-72
2021/12/31 00:50:58;;;;;;;22.83;4.03;;;;;;;;;;5015900;28;20061;-72
2021/12/31 00:53:24;;;;;;;15.88;3.30;;;;;;;;;;5016572;28;20045;-72
2021/12/31 00:55:50;;;;;;;28.70;3.70;;;;;;;;;;5019612;28;20018;-72
2021/12/31 00:58:16;;;;;;;28.90;4.53;;;;;;;;;;5019051;28;20042;-72
2021/12/31 01:00:42;;;;;;;23.73;4.00;;;;;;;;;;5016248;28;20042;-72
2021/12/31 01:03:08;;;;;;;30.00;5.13;;;;;;;;;;5024097;28;20467;-72
2021/12/31 01:05:35;;;;;;;26.35;4.72;;;;;;;;;;5016610;28;20029;-71
2021/12/31 01:08:01;;;;;;;24.40;4.43;;;;;;;;;;5022652;28;20156;-72
2021/12/31 01:10:28;;;;;;;25.92;4.00;;;;;;;;;;5019871;28;20068;-72
2021/12/31 01:12:54;;;;;;;20.80;3.65;;;;;;;;;;5017106;28;20075;-72
2021/12/31 01:18:26;;;;;;;19.80;3.83;;;;;;;;;;4981861;28;20394;-73
2021/12/31 01:20:52;;;;;;;16.17;3.35;;;;;;;;;;5019603;28;20172;-72
2021/12/31 01:23:18;;;;;;;20.80;4.07;;;;;;;;;;5020117;28;20056;-72
2021/12/31 01:25:45;;;;;;;24.23;4.00;;;;;;;;;;5016544;28;20514;-71
2021/12/31 01:28:11;;;;;;;28.48;3.92;;;;;;;;;;5002955;28;20072;-72
2021/12/31 01:30:38;;;;;;;25.23;3.92;;;;;;;;;;5020009;28;20022;-72
2021/12/31 01:33:04;;;;;;;21.15;3.67;;;;;;;;;;5022237;28;20040;-71
2021/12/31 01:35:30;;;;;;;26.13;5.45;;;;;;;;;;5016951;28;20052;-72
2021/12/31 01:37:56;;;;;;;24.38;4.43;;;;;;;;;;5020078;28;20037;-73
2021/12/31 01:40:22;;;;;;;19.40;3.30;;;;;;;;;;5019115;28;20033;-73
2021/12/31 01:42:48;;;;;;;23.80;4.18;;;;;;;;;;5004260;28;20049;-73
2021/12/31 01:45:17;;;;;;;23.33;3.35;;;;;;;;;;5013241;28;20068;-72
2021/12/31 01:50:13;;;;;;;29.50;3.97;;;;;;;;;;4997991;28;20069;-72
2021/12/31 01:52:40;;;;;;;22.17;4.55;;;;;;;;;;5019916;28;20060;-72
2021/12/31 01:55:09;;;;;;;17.40;3.17;;;;;;;;;;5020429;28;20048;-72
2021/12/31 01:57:35;;;;;;;20.50;3.17;;;;;;;;;;5021525;28;20048;-72
2021/12/31 02:00:01;;;;;;;18.55;3.40;;;;;;;;;;5025480;28;20112;-72
2021/12/31 02:02:27;;;;;;;15.63;3.67;;;;;;;;;;5025522;28;20051;-72
2021/12/31 02:04:54;;;;;;;23.33;3.97;;;;;;;;;;5024319;28;20033;-74
2021/12/31 02:07:20;;;;;;;15.43;3.40;;;;;;;;;;5020354;28;20468;-73
2021/12/31 02:09:50;;;;;;;26.10;4.40;;;;;;;;;;5024161;28;20482;-73
2021/12/31 02:12:17;;;;;;;24.30;3.38;;;;;;;;;;5001699;28;20033;-73
2021/12/31 02:14:44;;;;;;;22.65;4.32;;;;;;;;;;5020345;28;20120;-73
2021/12/31 02:17:10;;;;;;;25.48;4.43;;;;;;;;;;5023021;28;20972;-73
2021/12/31 02:19:37;;;;;;;22.95;4.75;;;;;;;;;;5019595;28;20434;-74
2021/12/31 02:22:03;;;;;;;18.52;3.55;;;;;;;;;;5020917;28;20042;-73
2021/12/31 02:24:29;;;;;;;20.55;3.47;;;;;;;;;;5022097;28;20392;-73
2021/12/31 02:26:55;;;;;;;21.27;2.97;;;;;;;;;;5026398;28;20052;-74
2021/12/31 02:29:23;;;;;;;18.50;4.38;;;;;;;;;;5014062;28;20042;-74
2021/12/31 02:31:49;;;;;;;17.98;3.50;;;;;;;;;;5019426;28;20116;-74
2021/12/31 02:34:15;;;;;;;20.00;3.50;;;;;;;;;;5021061;28;20479;-74
2021/12/31 02:36:42;;;;;;;16.20;3.83;;;;;;;;;;5019694;28;20125;-74
2021/12/31 02:39:08;;;;;;;23.05;3.17;;;;;;;;;;5020788;28;20059;-74
2021/12/31 02:41:34;;;;;;;12.70;2.85;;;;;;;;;;5005255;28;20079;-74
2021/12/31 02:44:00;;;;;;;14.77;3.25;;;;;;;;;;5023464;28;20629;-74
2021/12/31 02:46:26;;;;;;;17.20;3.60;;;;;;;;;;5019861;28;20445;-74
2021/12/31 02:48:56;;;;;;;17.00;3.05;;;;;;;;;;5009693;28;20033;-72
2021/12/31 02:51:23;;;;;;;19.13;4.72;;;;;;;;;;5021598;28;20095;-72
2021/12/31 02:53:52;;;;;;;16.08;3.90;;;;;;;;;;5020900;28;20034;-72
2021/12/31 02:56:19;;;;;;;21.98;4.93;;;;;;;;;;5023191;28;20482;-72
2021/12/31 02:58:45;;;;;;;21.30;4.95;;;;;;;;;;5019827;28;20063;-72
2021/12/31 03:01:14;;;;;;;12.30;3.10;;;;;;;;;;5022005;28;20049;-72
2021/12/31 03:03:41;;;;;;;14.82;2.90;;;;;;;;;;5022884;28;20048;-72
2021/12/31 03:06:08;;;;;;;17.63;3.55;;;;;;;;;;5020960;28;20120;-72
2021/12/31 03:08:39;;;;;;;17.98;4.25;;;;;;;;;;5022440;28;20768;-72
2021/12/31 03:11:06;;;;;;;18.90;3.15;;;;;;;;;;5020802;28;20029;-72
2021/12/31 03:13:34;;;;;;;19.40;4.20;;;;;;;;;;5013601;28;20538;-72
2021/12/31 03:16:00;;;;;;;16.40;2.72;;;;;;;;;;5023350;28;20461;-72
2021/12/31 03:18:27;;;;;;;12.15;2.70;;;;;;;;;;5021962;28;20034;-72
2021/12/31 03:21:20;;;;;;;14.90;2.88;;;;;;;;;;5020509;28;20070;-72
2021/12/31 03:23:47;;;;;;;22.85;2.72;;;;;;;;;;5022547;28;20038;-72
2021/12/31 03:26:13;;;;;;;24.48;5.05;;;;;;;;;;5021962;28;20048;-72
2021/12/31 03:28:39;;;;;;;16.33;2.85;;;;;;;;;;5021659;28;20191;-72
2021/12/31 03:31:05;;;;;;;14.27;3.10;;;;;;;;;;5021441;28;20029;-71
2021/12/31 03:33:31;;;;;;;12.43;3.03;;;;;;;;;;5018509;28;20057;-72
2021/12/31 03:35:57;;;;;;;13.10;2.95;;;;;;;;;;5017834;28;20026;-72
2021/12/31 03:38:23;;;;;;;13.43;3.53;;;;;;;;;;5005713;28;20076;-71
2021/12/31 03:40:50;;;;;;;15.27;3.13;;;;;;;;;;5019842;28;20029;-71
2021/12/31 03:43:16;;;;;;;11.85;2.63;;;;;;;;;;5022843;28;20018;-71
2021/12/31 03:45:42;;;;;;;22.67;3.15;;;;;;;;;;5005778;28;20100;-72
2021/12/31 03:48:08;;;;;;;14.20;3.10;;;;;;;;;;5018991;28;20399;-72
2021/12/31 03:50:34;;;;;;;15.60;3.08;;;;;;;;;;5024856;28;20038;-72
2021/12/31 03:53:00;;;;;;;16.38;3.88;;;;;;;;;;5020150;28;20076;-72
2021/12/31 03:55:26;;;;;;;17.15;3.28;;;;;;;;;;5021187;28;20033;-72
2021/12/31 03:57:52;;;;;;;13.07;3.10;;;;;;;;;;5022652;28;20038;-73
2021/12/31 04:00:19;;;;;;;12.93;2.90;;;;;;;;;;5020386;28;20025;-72
2021/12/31 04:02:45;;;;;;;14.82;2.92;;;;;;;;;;5020176;28;20024;-72
2021/12/31 04:05:11;;;;;;;17.05;2.70;;;;;;;;;;5019264;28;20030;-72
2021/12/31 04:07:37;;;;;;;15.30;3.00;;;;;;;;;;5019524;28;20041;-72
2021/12/31 04:10:04;;;;;;;14.02;2.90;;;;;;;;;;5005745;28;20494;-72
2021/12/31 04:12:30;;;;;;;13.63;3.13;;;;;;;;;;5021546;28;20025;-72
2021/12/31 04:14:56;;;;;;;19.52;3.30;;;;;;;;;;5018046;28;20033;-72
2021/12/31 04:17:22;;;;;;;13.40;2.78;;;;;;;;;;5018497;28;20029;-72
2021/12/31 04:19:52;;;;;;;15.35;2.90;;;;;;;;;;5019426;28;20049;-72
2021/12/31 04:22:20;;;;;;;15.38;2.90;;;;;;;;;;5019755;28;20026;-72
2021/12/31 04:27:16;;;;;;;17.13;3.45;;;;;;;;;;5018695;28;20037;-72
2021/12/31 04:29:49;;;;;;;9.50;2.42;;;;;;;;;;5020646;28;20033;-74
2021/12/31 04:32:15;;;;;;;8.75;2.30;;;;;;;;;;5006926;28;20067;-75
2021/12/31 04:34:41;;;;;;;15.63;3.65;;;;;;;;;;5020022;28;20046;-72
2021/12/31 04:37:07;;;;;;;8.27;3.20;;;;;;;;;;5020843;28;20074;-73
2021/12/31 04:39:33;;;;;;;9.63;2.50;;;;;;;;;;5018177;28;20040;-73
2021/12/31 04:41:59;;;;;;;10.73;2.63;;;;;;;;;;5019557;28;20061;-72
2021/12/31 04:44:26;;;;;;;10.05;1.77;;;;;;;;;;5019929;28;20080;-72
2021/12/31 04:46:52;;;;;;;9.82;2.30;;;;;;;;;;5020745;28;20066;-72
2021/12/31 04:49:18;;;;;;;10.05;2.45;;;;;;;;;;5004409;28;20044;-72
2021/12/31 04:51:44;;;;;;;10.73;3.33;;;;;;;;;;5021854;28;20052;-72
2021/12/31 04:54:15;;;;;;;10.57;3.10;;;;;;;;;;5020083;28;20434;-72
2021/12/31 04:56:42;;;;;;;6.43;2.78;;;;;;;;;;5018513;28;20064;-72
2021/12/31 04:59:09;;;;;;;8.25;2.35;;;;;;;;;;5019828;28;20550;-72
2021/12/31 05:01:35;;;;;;;9.95;2.75;;;;;;;;;;5020349;28;20095;-72
2021/12/31 05:04:01;;;;;;;14.00;1.90;;;;;;;;;;5018286;28;20120;-72
2021/12/31 05:06:27;;;;;;;8.82;2.05;;;;;;;;;;5019842;28;20037;-72
2021/12/31 05:08:53;;;;;;;12.60;2.33;;;;;;;;;;5019674;28;20262;-72
2021/12/31 05:11:19;;;;;;;7.70;2.75;;;;;;;;;;5020134;28;20422;-72
2021/12/31 05:13:46;;;;;;;10.88;2.72;;;;;;;;;;5014392;28;20033;-71
2021/12/31 05:16:12;;;;;;;6.53;1.80;;;;;;;;;;5023141;28;20030;-72
2021/12/31 05:18:38;;;;;;;8.50;2.03;;;;;;;;;;5019584;28;20638;-72
2021/12/31 05:21:04;;;;;;;10.52;2.25;;;;;;;;;;5020928;28;20057;-72
2021/12/31 05:23:31;;;;;;;6.25;2.30;;;;;;;;;;5020051;28;20113;-72
2021/12/31 05:25:57;;;;;;;4.30;1.65;;;;;;;;;;5019545;28;20038;-72
2021/12/31 05:28:23;;;;;;;7.90;2.03;;;;;;;;;;5020617;28;20030;-72
2021/12/31 05:30:49;;;;;;;5.07;1.98;;;;;;;;;;5023359;28;20034;-72
2021/12/31 05:33:15;;;;;;;7.53;2.90;;;;;;;;;;5019536;28;20112;-72
2021/12/31 05:35:41;;;;;;;8.60;1.90;;;;;;;;;;5022316;28;20038;-71
2021/12/31 05:38:07;;;;;;;8.32;1.90;;;;;;;;;;5008404;28;20395;-71
2021/12/31 05:40:34;;;;;;;6.25;2.05;;;;;;;;;;5023089;28;20486;-71
2021/12/31 05:43:00;;;;;;;5.45;1.88;;;;;;;;;;5022111;28;20026;-71
2021/12/31 05:45:26;;;;;;;6.15;1.60;;;;;;;;;;5025633;28;20048;-72
2021/12/31 05:47:53;;;;;;;6.60;1.90;;;;;;;;;;5021751;28;20075;-71
2021/12/31 05:50:29;;;;;;;6.03;1.80;;;;;;;;;;5022307;28;20079;-71
2021/12/31 05:52:59;;;;;;;6.97;1.80;;;;;;;;;;5021535;28;20092;-72
2021/12/31 05:55:25;;;;;;;11.60;2.55;;;;;;;;;;5017468;28;20049;-72
2021/12/31 05:57:51;;;;;;;7.57;1.73;;;;;;;;;;5020069;28;20034;-73
2021/12/31 06:00:18;;;;;;;4.22;1.50;;;;;;;;;;5006186;28;20426;-73
2021/12/31 06:02:44;;;;;;;5.78;1.60;;;;;;;;;;5022909;28;20042;-73
2021/12/31 06:05:10;;;;;;;7.10;2.13;;;;;;;;;;5022318;28;20052;-73
2021/12/31 06:07:36;;;;;;;5.43;1.98;;;;;;;;;;5020450;28;20037;-73
2021/12/31 06:10:02;;;;;;;5.60;1.65;;;;;;;;;;5023697;28;20033;-73
2021/12/31 06:12:29;;;;;;;6.00;1.70;;;;;;;;;;5022850;28;20021;-71
2021/12/31 06:14:58;;;;;;;5.47;2.03;;;;;;;;;;5003904;28;20071;-72
2021/12/31 06:17:27;;;;;;;6.22;2.33;;;;;;;;;;5024604;28;20025;-72
2021/12/31 06:19:53;;;;;;;6.63;1.80;;;;;;;;;;5021792;28;20042;-73
2021/12/31 06:22:23;;;;;;;6.07;1.85;;;;;;;;;;5024514;28;20021;-73
2021/12/31 06:24:49;;;;;;;5.65;1.60;;;;;;;;;;5003275;28;20033;-73
2021/12/31 06:27:15;;;;;;;6.20;2.20;;;;;;;;;;5021613;28;20116;-73
2021/12/31 06:29:41;;;;;;;6.85;2.00;;;;;;;;;;5020868;28;20033;-73
2021/12/31 06:32:07;;;;;;;7.28;1.65;;;;;;;;;;5025208;28;20057;-72
2021/12/31 06:34:33;;;;;;;7.55;1.50;;;;;;;;;;5024680;28;20040;-72
2021/12/31 06:36:59;;;;;;;8.75;2.67;;;;;;;;;;5022863;28;20075;-72
2021/12/31 06:39:27;;;;;;;4.80;1.42;;;;;;;;;;5023286;28;20077;-72
2021/12/31 06:41:53;;;;;;;5.45;1.88;;;;;;;;;;4998893;28;20083;-72
2021/12/31 06:44:19;;;;;;;8.70;2.20;;;;;;;;;;5023616;28;20045;-72
2021/12/31 06:46:45;;;;;;;6.63;1.88;;;;;;;;;;5020171;28;20056;-73
2021/12/31 06:49:11;;;;;;;6.20;1.90;;;;;;;;;;5004555;28;20060;-73
2021/12/31 06:51:38;;;;;;;7.60;1.80;;;;;;;;;;5016103;28;20127;-73
2021/12/31 06:54:04;;;;;;;2.72;1.38;;;;;;;;;;5019865;28;20121;-73
2021/12/31 06:56:30;;;;;;;3.88;1.83;;;;;;;;;;5022055;28;20033;-72
2021/12/31 06:58:56;;;;;;;6.68;1.63;;;;;;;;;;5018481;28;20088;-73
2021/12/31 07:01:22;;;;;;;6.95;1.48;;;;;;;;;;5021935;28;20026;-73
2021/12/31 07:03:48;;;;;;;5.28;1.70;;;;;;;;;;5002323;28;20058;-73
2021/12/31 07:06:14;;;;;;;4.47;1.52;;;;;;;;;;5018060;28;20712;-73
2021/12/31 07:08:40;;;;;;;8.25;2.15;;;;;;;;;;5005714;28;20121;-73
2021/12/31 07:11:07;;;;;;;5.88;1.27;;;;;;;;;;5021024;28;20037;-72
2021/12/31 07:13:33;;;;;;;4.63;1.42;;;;;;;;;;5019615;28;20033;-72
2021/12/31 07:15:59;;;;;;;5.35;1.65;;;;;;;;;;5020257;28;20037;-73
2021/12/31 07:18:25;;;;;;;7.38;1.95;;;;;;;;;;5023346;28;20083;-72
2021/12/31 07:20:52;;;;;;;5.72;1.52;;;;;;;;;;5021861;28;20077;-73
2021/12/31 07:23:19;;;;;;;6.80;1.30;;;;;;;;;;5019412;28;20041;-74
2021/12/31 07:25:45;;;;;;;8.95;2.25;;;;;;;;;;5003006;28;20367;-74
2021/12/31 07:28:12;;;;;;;6.60;1.67;;;;;;;;;;5021440;28;20068;-73
2021/12/31 07:30:38;;;;;;;7.13;2.15;;;;;;;;;;5020819;28;20398;-74
2021/12/31 07:33:04;;;;;;;2.42;1.20;;;;;;;;;;5021230;28;20470;-73
2021/12/31 07:35:31;;;;;;;14.38;2.90;;;;;;;;;;5021424;28;20450;-71
2021/12/31 07:37:58;;;;;;;5.20;1.60;;;;;;;;;;5019578;28;20041;-71
2021/12/31 07:40:41;;;;;;;5.90;2.33;;;;;;;;;;5020433;28;20033;-72
2021/12/31 07:43:08;;;;;;;6.40;2.05;;;;;;;;;;5017715;28;20022;-72
2021/12/31 07:45:34;;;;;;;4.97;2.00;;;;;;;;;;5022549;28;20075;-72
2021/12/31 07:48:01;;;;;;;6.30;1.48;;;;;;;;;;5019016;28;20044;-72
2021/12/31 07:50:27;;;;;;;6.32;1.95;;;;;;;;;;5021630;28;20029;-72
2021/12/31 07:52:53;;;;;;;9.85;2.70;;;;;;;;;;5017378;28;20049;-71
2021/12/31 07:55:19;;;;;;;6.85;2.50;;;;;;;;;;5021713;28;20410;-71
2021/12/31 07:57:45;;;;;;;9.05;3.30;;;;;;;;;;5019572;28;20052;-72
2021/12/31 08:00:12;;;;;;;8.60;3.67;;;;;;;;;;5019921;28;20033;-71
2021/12/31 08:02:38;;;;;;;8.10;3.17;;;;;;;;;;5022855;28;20029;-72
2021/12/31 08:05:04;;;;;;;12.85;3.55;;;;;;;;;;5016168;28;20045;-72
2021/12/31 08:07:30;;;;;;;6.88;3.83;;;;;;;;;;5020219;28;20033;-72
2021/12/31 08:09:56;;;;;;;5.88;2.38;;;;;;;;;;5018042;28;20045;-71
2021/12/31 08:12:22;;;;;;;8.68;2.55;;;;;;;;;;5021437;28;20037;-71
2021/12/31 08:14:48;;;;;;;7.97;2.33;;;;;;;;;;5021534;28;20037;-71
2021/12/31 08:17:14;;;;;;;5.15;1.80;;;;;;;;;;5018416;28;20029;-71
2021/12/31 08:19:41;;;;;;;7.03;2.15;;;;;;;;;;5019175;28;20040;-73
2021/12/31 08:22:07;;;;;;;4.18;2.10;;;;;;;;;;5019194;28;20045;-73
2021/12/31 08:24:33;;;;;;;5.57;2.10;;;;;;;;;;5022767;28;20044;-72
2021/12/31 08:26:59;;;;;;;6.65;2.42;;;;;;;;;;5020572;28;20033;-73
2021/12/31 08:29:26;;;;;;;5.53;2.42;;;;;;;;;;5020350;28;20038;-72
2021/12/31 08:31:52;;;;;;;5.78;2.13;;;;;;;;;;5017277;28;20038;-73
2021/12/31 08:34:18;;;;;;;7.35;2.65;;;;;;;;;;5021762;28;20051;-73
2021/12/31 08:36:44;;;;;;;5.50;2.05;;;;;;;;;;5003099;28;20057;-73
2021/12/31 08:39:10;;;;;;;7.35;2.70;;;;;;;;;;5023725;28;20431;-72
2021/12/31 08:41:38;;;;;;;8.75;2.25;;;;;;;;;;5000812;28;20022;-72
2021/12/31 08:44:04;;;;;;;8.63;2.70;;;;;;;;;;5023210;28;20033;-73
2021/12/31 08:46:31;;;;;;;12.45;2.28;;;;;;;;;;5016329;28;20037;-72
2021/12/31 08:48:57;;;;;;;9.43;2.45;;;;;;;;;;5022872;28;20034;-72
2021/12/31 08:51:24;;;;;;;4.68;2.13;;;;;;;;;;5014781;28;20445;-74
2021/12/31 08:53:50;;;;;;;3.05;1.75;;;;;;;;;;5015201;28;20026;-75
2021/12/31 08:56:16;;;;;;;6.70;2.38;;;;;;;;;;5018134;28;20113;-73
2021/12/31 08:58:43;;;;;;;5.13;3.17;;;;;;;;;;5018730;28;20057;-72
2021/12/31 09:01:09;;;;;;;11.70;4.68;;;;;;;;;;5019235;28;20079;-72
2021/12/31 09:03:35;;;;;;;11.82;4.18;;;;;;;;;;5021175;28;20038;-73
2021/12/31 09:06:01;;;;;;;7.35;2.35;;;;;;;;;;5022467;28;20045;-72
2021/12/31 09:08:27;;;;;;;8.98;2.65;;;;;;;;;;5019258;28;20044;-73
2021/12/31 09:10:53;;;;;;;7.03;2.08;;;;;;;;;;5020964;28;20034;-73
2021/12/31 09:13:19;;;;;;;5.80;2.70;;;;;;;;;;5026188;28;20416;-72
2021/12/31 09:15:46;;;;;;;6.57;2.70;;;;;;;;;;5021887;28;20033;-73
2021/12/31 09:18:12;;;;;;;7.95;2.35;;;;;;;;;;5022062;28;20418;-72
2021/12/31 09:20:38;;;;;;;6.93;2.75;;;;;;;;;;5010884;28;20440;-72
2021/12/31 09:23:04;;;;;;;6.65;2.95;;;;;;;;;;5026328;28;20127;-73
2021/12/31 09:25:30;;;;;;;9.20;2.45;;;;;;;;;;5023112;28;20044;-72
2021/12/31 09:27:56;;;;;;;5.82;2.55;;;;;;;;;;5022620;28;20038;-72
2021/12/31 09:30:22;;;;;;;10.60;4.10;;;;;;;;;;5011038;28;20037;-72
2021/12/31 09:32:49;;;;;;;10.73;3.45;;;;;;;;;;5022483;28;20402;-73
2021/12/31 09:35:15;;;;;;;6.63;2.38;;;;;;;;;;5021165;28;20033;-75
2021/12/31 09:37:41;;;;;;;5.18;2.25;;;;;;;;;;5026539;28;20029;-72
2021/12/31 09:40:08;;;;;;;7.90;2.58;;;;;;;;;;5023116;28;20144;-72
2021/12/31 09:42:36;;;;;;;7.80;2.55;;;;;;;;;;5004256;28;20037;-73
2021/12/31 09:45:02;;;;;;;9.02;3.05;;;;;;;;;;5017934;28;20041;-74
2021/12/31 09:47:28;;;;;;;10.25;2.20;;;;;;;;;;5017791;28;20454;-75
2021/12/31 09:49:54;;;;;;;6.35;2.63;;;;;;;;;;5019318;28;20038;-72
2021/12/31 09:52:21;;;;;;;7.22;2.80;;;;;;;;;;5022583;28;20033;-72
2021/12/31 09:54:48;;;;;;;6.43;2.20;;;;;;;;;;5001876;28;20042;-73
2021/12/31 09:57:15;;;;;;;9.55;3.67;;;;;;;;;;5022180;28;20029;-74
2021/12/31 09:59:41;;;;;;;7.57;2.80;;;;;;;;;;5005015;28;20080;-74
2021/12/31 10:02:09;;;;;;;5.43;2.42;;;;;;;;;;5006941;28;20435;-75
2021/12/31 10:04:55;;;;;;;17.52;8.25;;;;;;;;;;5005800;28;20068;-73
2021/12/31 10:07:23;;;;;;;10.43;4.10;;;;;;;;;;5025975;28;20038;-74
2021/12/31 10:10:03;;;;;;;9.27;2.85;;;;;;;;;;5023484;28;20479;-74
2021/12/31 10:12:49;;;;;;;5.00;2.33;;;;;;;;;;5020793;28;20041;-76
2021/12/31 10:15:17;;;;;;;8.02;2.58;;;;;;;;;;5024491;28;20038;-75
2021/12/31 10:17:43;;;;;;;8.20;2.70;;;;;;;;;;5021791;28;20062;-74
2021/12/31 10:20:10;;;;;;;7.97;2.80;;;;;;;;;;5017431;28;20050;-74
2021/12/31 10:22:36;;;;;;;10.90;3.22;;;;;;;;;;5022041;28;20041;-75
2021/12/31 10:25:02;;;;;;;5.72;2.25;;;;;;;;;;5019026;28;20079;-73
2021/12/31 10:27:29;;;;;;;10.27;2.28;;;;;;;;;;5019863;28;20038;-73
2021/12/31 10:29:56;;;;;;;6.88;2.42;;;;;;;;;;5023311;28;20040;-74
2021/12/31 10:32:23;;;;;;;9.50;2.58;;;;;;;;;;5017685;28;20060;-75
2021/12/31 10:34:49;;;;;;;13.02;3.17;;;;;;;;;;5022166;28;20553;-74
2021/12/31 10:37:18;;;;;;;8.35;2.50;;;;;;;;;;5022214;28;20054;-74
2021/12/31 10:39:44;;;;;;;7.47;3.60;;;;;;;;;;5021119;28;20021;-74
2021/12/31 10:42:11;;;;;;;6.53;2.70;;;;;;;;;;5017466;28;20038;-74
2021/12/31 10:44:51;;;;;;;11.65;2.83;;;;;;;;;;5021376;28;20029;-75
2021/12/31 10:47:19;;;;;;;5.65;2.50;;;;;;;;;;5020999;28;20037;-75
2021/12/31 10:49:57;;;;;;;11.55;2.85;;;;;;;;;;5019364;28;20045;-75
2021/12/31 10:52:25;;;;;;;12.48;3.35;;;;;;;;;;5006205;28;20033;-74
2021/12/31 10:55:01;;;;;;;11.75;3.08;;;;;;;;;;5021539;28;20033;-74
2021/12/31 10:57:38;;;;;;;11.43;3.95;;;;;;;;;;5000121;28;20033;-75
2021/12/31 11:00:05;;;;;;;6.60;3.33;;;;;;;;;;5022952;28;20029;-75
2021/12/31 11:02:35;;;;;;;13.75;3.53;;;;;;;;;;5018757;28;20029;-74
2021/12/31 11:05:01;;;;;;;9.98;3.53;;;;;;;;;;5004070;28;20453;-75
2021/12/31 11:07:29;;;;;;;9.93;5.30;;;;;;;;;;5023682;28;20391;-75
2021/12/31 11:09:59;;;;;;;12.60;4.80;;;;;;;;;;5020150;28;20071;-75
2021/12/31 11:12:28;;;;;;;10.77;3.08;;;;;;;;;;5024361;28;20026;-75
2021/12/31 11:14:55;;;;;;;10.43;3.47;;;;;;;;;;5018721;28;20033;-75
2021/12/31 11:17:21;;;;;;;15.25;4.97;;;;;;;;;;5018358;28;20096;-75
2021/12/31 11:19:50;;;;;;;11.55;2.65;;;;;;;;;;5022468;28;20045;-74
2021/12/31 11:22:27;;;;;;;13.20;3.35;;;;;;;;;;5020824;28;20025;-75
2021/12/31 11:24:53;;;;;;;13.27;4.20;;;;;;;;;;5022059;28;20049;-75
2021/12/31 11:27:45;;;;;;;9.60;3.10;;;;;;;;;;5019438;28;20486;-74
2021/12/31 11:30:27;;;;;;;17.75;3.65;;;;;;;;;;5021065;28;20057;-73
2021/12/31 11:32:56;;;;;;;13.65;4.10;;;;;;;;;;5002452;28;20542;-73
2021/12/31 11:35:28;;;;;;;15.25;3.97;;;;;;;;;;5014736;28;20440;-74
2021/12/31 11:37:54;;;;;;;11.25;4.30;;;;;;;;;;5021445;28;20479;-74
2021/12/31 11:40:27;;;;;;;17.42;5.10;;;;;;;;;;5023112;28;20021;-75
2021/12/31 11:43:12;;;;;;;17.98;5.03;;;;;;;;;;5020043;28;20045;-74
2021/12/31 11:45:38;;;;;;;17.88;4.55;;;;;;;;;;5020869;28;20080;-74
2021/12/31 11:48:24;;;;;;;14.45;4.32;;;;;;;;;;5022812;28;20045;-74
2021/12/31 11:51:05;;;;;;;12.50;4.57;;;;;;;;;;5021795;28;20112;-74
2021/12/31 11:53:31;;;;;;;13.40;4.13;;;;;;;;;;5019773;28;20850;-75
2021/12/31 11:55:57;;;;;;;13.05;4.55;;;;;;;;;;5001759;28;20037;-75
2021/12/31 11:58:43;;;;;;;12.50;5.45;;;;;;;;;;5022086;28;20057;-74
2021/12/31 12:01:28;;;;;;;11.27;4.45;;;;;;;;;;5020014;28;20034;-73
2021/12/31 12:04:12;;;;;;;16.40;4.68;;;;;;;;;;5016427;28;20033;-73
2021/12/31 12:06:51;;;;;;;41.15;4.97;;;;;;;;;;5020626;28;20036;-72
2021/12/31 12:09:17;;;;;;;15.85;4.68;;;;;;;;;;5018633;28;20044;-73
2021/12/31 12:12:01;;;;;;;15.25;4.55;;;;;;;;;;5001369;28;20490;-73
2021/12/31 12:14:28;;;;;;;8.52;4.30;;;;;;;;;;5019238;28;20075;-73
2021/12/31 12:16:56;;;;;;;10.77;4.32;;;;;;;;;;5020488;28;20044;-74
2021/12/31 12:19:22;;;;;;;19.20;5.95;;;;;;;;;;5000021;28;20041;-74
2021/12/31 12:21:52;;;;;;;12.55;4.18;;;;;;;;;;5016801;28;20033;-73
2021/12/31 12:24:24;;;;;;;13.23;4.93;;;;;;;;;;5020567;28;20029;-74
2021/12/31 12:26:50;;;;;;;9.32;4.43;;;;;;;;;;5019161;28;20042;-73
2021/12/31 12:29:26;;;;;;;10.18;4.15;;;;;;;;;;5013491;28;20072;-74
2021/12/31 12:32:11;;;;;;;10.60;4.32;;;;;;;;;;5019325;28;20048;-74
2021/12/31 12:34:37;;;;;;;36.53;20.42;;;;;;;;;;5021257;28;20034;-72
2021/12/31 12:37:04;;;;;;;9.48;5.45;;;;;;;;;;5015803;28;20037;-73
2021/12/31 12:39:31;;;;;;;10.00;3.67;;;;;;;;;;5022594;28;20033;-73
2021/12/31 12:41:57;;;;;;;9.98;4.10;;;;;;;;;;5008137;28;20033;-72
2021/12/31 12:44:23;;;;;;;8.52;3.85;;;;;;;;;;5018586;28;20087;-71
2021/12/31 12:46:57;;;;;;;7.68;3.75;;;;;;;;;;5017756;28;20539;-71
2021/12/31 12:49:26;;;;;;;8.40;3.42;;;;;;;;;;5021047;28;20033;-71
2021/12/31 12:51:54;;;;;;;6.30;3.90;;;;;;;;;;5012848;28;20038;-71
2021/12/31 12:54:25;;;;;;;13.73;3.90;;;;;;;;;;4998725;28;20036;-72
2021/12/31 12:56:52;;;;;;;9.07;3.30;;;;;;;;;;5021874;28;20029;-72
2021/12/31 12:59:22;;;;;;;11.30;4.22;;;;;;;;;;5019445;28;20060;-71
2021/12/31 13:01:48;;;;;;;12.65;3.95;;;;;;;;;;5014986;28;20515;-70
2021/12/31 13:04:15;;;;;;;16.55;3.92;;;;;;;;;;5017708;28;20083;-70
2021/12/31 13:06:43;;;;;;;15.32;4.05;;;;;;;;;;5015933;28;20132;-70
2021/12/31 13:09:15;;;;;;;21.92;4.95;;;;;;;;;;5019084;28;20034;-70
2021/12/31 13:11:45;;;;;;;14.13;3.47;;;;;;;;;;5017536;28;20054;-72
2021/12/31 13:14:18;;;;;;;17.30;4.00;;;;;;;;;;5015173;28;20057;-72
2021/12/31 13:16:44;;;;;;;14.30;4.18;;;;;;;;;;5018155;28;20033;-71
2021/12/31 13:19:12;;;;;;;17.67;4.60;;;;;;;;;;5016014;28;20410;-72
2021/12/31 13:21:38;;;;;;;22.35;4.80;;;;;;;;;;5019779;28;20037;-71
2021/12/31 13:24:05;;;;;;;17.48;4.70;;;;;;;;;;5017279;28;20034;-71
2021/12/31 13:26:33;;;;;;;19.10;4.20;;;;;;;;;;5017648;28;20048;-72
2021/12/31 13:29:00;;;;;;;25.60;5.22;;;;;;;;;;5013665;28;20032;-71
2021/12/31 13:31:34;;;;;;;20.95;4.95;;;;;;;;;;5021077;28;20033;-72
2021/12/31 13:34:19;;;;;;;23.42;4.80;;;;;;;;;;5018252;28;20044;-71
2021/12/31 13:36:46;;;;;;;24.05;5.20;;;;;;;;;;4998523;28;20034;-71
2021/12/31 13:39:14;;;;;;;25.00;4.78;;;;;;;;;;5005259;28;20053;-72
2021/12/31 13:41:51;;;;;;;27.67;5.78;;;;;;;;;;5021539;28;20034;-71
2021/12/31 13:44:19;;;;;;;28.80;7.10;;;;;;;;;;5018656;28;20477;-72
2021/12/31 13:46:46;;;;;;;29.25;5.45;;;;;;;;;;5016464;28;20025;-71
2021/12/31 13:49:17;;;;;;;28.95;5.50;;;;;;;;;;5013970;28;20042;-71
2021/12/31 13:51:43;;;;;;;31.75;8.50;;;;;;;;;;5020908;28;20101;-72
2021/12/31 13:54:16;;;;;;;31.95;6.53;;;;;;;;;;5017184;28;20037;-71
2021/12/31 13:56:43;;;;;;;22.33;4.63;;;;;;;;;;5021893;28;20033;-72
2021/12/31 13:59:16;;;;;;;26.00;4.70;;;;;;;;;;5004698;28;20056;-71
2021/12/31 14:02:01;;;;;;;30.77;6.15;;;;;;;;;;5016624;28;20095;-71
2021/12/31 14:04:27;;;;;;;25.05;5.25;;;;;;;;;;5016422;28;20092;-71
2021/12/31 14:06:58;;;;;;;23.35;4.93;;;;;;;;;;5014119;28;20033;-72
2021/12/31 14:09:24;;;;;;;18.95;4.40;;;;;;;;;;5018577;28;20033;-71
2021/12/31 14:11:52;;;;;;;32.53;5.07;;;;;;;;;;5020394;28;20103;-71
2021/12/31 14:14:18;;;;;;;31.20;4.95;;;;;;;;;;5023551;28;20056;-72
2021/12/31 14:16:44;;;;;;;29.30;5.13;;;;;;;;;;5020055;28;20033;-71
2021/12/31 14:19:10;;;;;;;32.22;6.13;;;;;;;;;;5018280;28;20173;-71
2021/12/31 14:21:37;;;;;;;26.10;4.93;;;;;;;;;;5021262;28;20049;-71
2021/12/31 14:24:03;;;;;;;20.60;4.00;;;;;;;;;;5021706;28;20041;-71
2021/12/31 14:26:29;;;;;;;18.10;3.97;;;;;;;;;;5019606;28;20029;-71
2021/12/31 14:28:55;;;;;;;30.40;5.05;;;;;;;;;;5025111;28;20025;-71
2021/12/31 14:31:22;;;;;;;24.75;5.13;;;;;;;;;;5019989;28;20072;-70
2021/12/31 14:33:49;;;;;;;25.67;4.88;;;;;;;;;;5006840;28;20060;-70
2021/12/31 14:36:15;;;;;;;26.20;4.75;;;;;;;;;;5006842;28;20026;-70
2021/12/31 14:38:41;;;;;;;31.40;6.05;;;;;;;;;;5016357;28;20034;-70
2021/12/31 14:41:22;;;;;;;24.40;5.18;;;;;;;;;;5004045;28;20040;-70
2021/12/31 14:43:52;;;;;;;23.00;4.05;;;;;;;;;;5021942;28;20036;-70
2021/12/31 14:46:18;;;;;;;25.77;5.75;;;;;;;;;;5025481;28;20383;-70
2021/12/31 14:48:44;;;;;;;22.23;5.10;;;;;;;;;;5022723;28;20096;-71